createdAt,value
2023-02-12T00:01:24.110Z,1.45
2023-02-12T00:03:52.429Z,1.45
2023-02-12T00:06:20.677Z,1.47
2023-02-12T00:08:54.303Z,1.47
2023-02-12T00:11:28.591Z,1.47
2023-02-12T00:13:58.327Z,1.48
2023-02-12T00:16:28.977Z,1.48
2023-02-12T00:18:58.737Z,1.49
2023-02-12T00:21:29.086Z,1.49
2023-02-12T00:23:57.880Z,1.50
2023-02-12T00:26:25.968Z,1.51
2023-02-12T00:28:55.063Z,1.52
2023-02-12T00:31:26.763Z,1.51
2023-02-12T00:33:59.535Z,1.51
2023-02-12T00:36:30.549Z,1.52
2023-02-12T00:39:00.243Z,1.52
2023-02-12T00:41:28.397Z,1.51
2023-02-12T00:43:57.025Z,1.52
2023-02-12T00:46:25.131Z,1.52
2023-02-12T00:48:53.378Z,1.51
2023-02-12T00:51:21.962Z,1.50
2023-02-12T00:53:52.599Z,1.51
2023-02-12T00:56:20.575Z,1.51
2023-02-12T00:58:51.020Z,1.51
2023-02-12T01:01:19.364Z,1.51
2023-02-12T01:03:47.679Z,1.52
2023-02-12T01:06:15.959Z,1.52
2023-02-12T01:08:44.131Z,1.52
2023-02-12T01:11:13.867Z,1.51
2023-02-12T01:13:42.131Z,1.51
2023-02-12T01:16:19.121Z,1.51
2023-02-12T01:18:48.108Z,1.51
2023-02-12T01:21:22.634Z,1.51
2023-02-12T01:23:51.452Z,1.52
2023-02-12T01:26:21.862Z,1.51
2023-02-12T01:28:55.261Z,1.52
2023-02-12T01:31:26.701Z,1.53
2023-02-12T01:33:57.028Z,1.52
2023-02-12T01:36:26.245Z,1.52
2023-02-12T01:38:55.543Z,1.52
2023-02-12T01:41:27.307Z,1.52
2023-02-12T01:44:19.417Z,1.52
2023-02-12T01:46:50.770Z,1.51
2023-02-12T01:49:25.928Z,1.51
2023-02-12T01:52:05.044Z,1.51
2023-02-12T01:54:35.370Z,1.51
2023-02-12T01:57:05.830Z,1.52
2023-02-12T01:59:36.693Z,1.52
2023-02-12T02:02:05.882Z,1.52
2023-02-12T02:04:50.796Z,1.54
2023-02-12T02:07:19.083Z,1.54
2023-02-12T02:09:47.887Z,1.53
2023-02-12T02:12:34.799Z,1.53
2023-02-12T02:15:04.792Z,1.53
2023-02-12T02:17:56.411Z,1.53
2023-02-12T02:20:46.388Z,1.55
2023-02-12T02:23:49.971Z,1.54
2023-02-12T02:26:32.979Z,1.55
2023-02-12T02:29:19.691Z,1.55
2023-02-12T02:31:55.103Z,1.55
2023-02-12T02:34:34.670Z,1.55
2023-02-12T02:37:37.444Z,1.56
2023-02-12T02:40:19.942Z,1.55
2023-02-12T02:42:52.616Z,1.55
2023-02-12T02:45:35.642Z,1.55
2023-02-12T02:48:06.479Z,1.54
2023-02-12T02:50:38.752Z,1.55
2023-02-12T02:53:19.620Z,1.56
2023-02-12T02:55:54.802Z,1.56
2023-02-12T02:58:28.839Z,1.57
2023-02-12T03:01:08.530Z,1.58
2023-02-12T03:04:12.914Z,1.58
2023-02-12T03:06:55.718Z,1.58
2023-02-12T03:09:39.051Z,1.59
2023-02-12T03:12:37.736Z,1.60
2023-02-12T03:15:15.236Z,1.60
2023-02-12T03:17:49.514Z,1.61
2023-02-12T03:20:24.577Z,1.60
2023-02-12T03:22:58.177Z,1.60
2023-02-12T03:25:34.027Z,1.60
2023-02-12T03:28:01.938Z,1.60
2023-02-12T03:30:42.981Z,1.60
2023-02-12T03:33:32.437Z,1.60
2023-02-12T03:36:07.066Z,1.61
2023-02-12T03:38:47.211Z,1.61
2023-02-12T03:41:28.083Z,1.60
2023-02-12T03:44:05.992Z,1.61
2023-02-12T03:47:07.316Z,1.62
2023-02-12T03:49:47.370Z,1.62
2023-02-12T03:52:15.434Z,1.63
2023-02-12T03:54:43.497Z,1.63
2023-02-12T03:57:16.274Z,1.63
2023-02-12T03:59:45.096Z,1.63
2023-02-12T04:02:15.295Z,1.63
2023-02-12T04:04:44.972Z,1.64
2023-02-12T04:07:13.918Z,1.64
2023-02-12T04:09:41.993Z,1.65
2023-02-12T04:12:28.595Z,1.65
2023-02-12T04:15:08.782Z,1.65
2023-02-12T04:18:20.734Z,1.65
2023-02-12T04:21:13.873Z,1.65
2023-02-12T04:23:59.761Z,1.66
2023-02-12T04:26:52.516Z,1.67
2023-02-12T04:29:37.258Z,1.68
2023-02-12T04:32:12.828Z,1.67
2023-02-12T04:34:56.380Z,1.67
2023-02-12T04:37:35.646Z,1.68
2023-02-12T04:40:08.050Z,1.68
2023-02-12T04:42:47.568Z,1.68
2023-02-12T04:45:21.177Z,1.68
2023-02-12T04:47:49.457Z,1.70
2023-02-12T04:50:17.978Z,1.72
2023-02-12T04:52:46.540Z,1.72
2023-02-12T04:55:15.123Z,1.73
2023-02-12T04:57:43.401Z,1.72
2023-02-12T05:00:14.263Z,1.72
2023-02-12T05:02:42.330Z,1.72
2023-02-12T05:05:10.570Z,1.73
2023-02-12T05:07:38.876Z,1.73
2023-02-12T05:10:07.911Z,1.73
2023-02-12T05:12:35.927Z,1.73
2023-02-12T05:15:04.435Z,1.72
2023-02-12T05:17:32.514Z,1.73
2023-02-12T05:20:00.694Z,1.74
2023-02-12T05:22:28.970Z,1.73
2023-02-12T05:24:57.253Z,1.75
2023-02-12T05:27:25.343Z,1.76
2023-02-12T05:29:53.529Z,1.75
2023-02-12T05:32:21.582Z,1.76
2023-02-12T05:34:49.862Z,1.76
2023-02-12T05:37:17.948Z,1.76
2023-02-12T05:39:46.016Z,1.77
2023-02-12T05:42:14.193Z,1.76
2023-02-12T05:44:42.273Z,1.75
2023-02-12T05:47:11.063Z,1.76
2023-02-12T05:49:39.147Z,1.76
2023-02-12T05:52:07.208Z,1.76
2023-02-12T05:54:35.294Z,1.76
2023-02-12T05:57:03.295Z,1.77
2023-02-12T05:59:31.544Z,1.76
2023-02-12T06:01:59.560Z,1.76
2023-02-12T06:04:29.252Z,1.77
2023-02-12T06:06:57.510Z,1.77
2023-02-12T06:09:25.635Z,1.77
2023-02-12T06:11:53.864Z,1.77
2023-02-12T06:14:22.052Z,1.78
2023-02-12T06:16:51.977Z,1.78
2023-02-12T06:19:20.562Z,1.77
2023-02-12T06:21:48.724Z,1.77
2023-02-12T06:24:17.442Z,1.77
2023-02-12T06:26:46.225Z,1.77
2023-02-12T06:29:14.603Z,1.78
2023-02-12T06:31:43.245Z,1.78
2023-02-12T06:34:13.721Z,1.78
2023-02-12T06:36:44.766Z,1.78
2023-02-12T06:39:15.611Z,1.79
2023-02-12T06:41:44.295Z,1.79
2023-02-12T06:44:13.198Z,1.79
2023-02-12T06:46:41.188Z,1.79
2023-02-12T06:49:12.628Z,1.79
2023-02-12T06:51:41.639Z,1.80
2023-02-12T06:54:15.089Z,1.80
2023-02-12T06:56:43.396Z,1.79
2023-02-12T06:59:15.470Z,1.80
2023-02-12T07:01:44.060Z,1.80
2023-02-12T07:04:12.614Z,1.81
2023-02-12T07:06:41.019Z,1.81
2023-02-12T07:09:09.032Z,1.81
2023-02-12T07:11:38.719Z,1.82
2023-02-12T07:14:08.020Z,1.82
2023-02-12T07:16:36.113Z,1.82
2023-02-12T07:19:04.289Z,1.82
2023-02-12T07:21:32.346Z,1.82
2023-02-12T07:24:00.461Z,1.82
2023-02-12T07:26:29.004Z,1.84
2023-02-12T07:28:58.841Z,1.83
2023-02-12T07:31:27.134Z,1.83
2023-02-12T07:33:57.044Z,1.83
2023-02-12T07:36:27.529Z,1.83
2023-02-12T07:38:57.070Z,1.83
2023-02-12T07:41:28.737Z,1.83
2023-02-12T07:43:59.349Z,1.85
2023-02-12T07:46:30.819Z,1.87
2023-02-12T07:49:01.194Z,1.89
2023-02-12T07:51:29.412Z,1.90
2023-02-12T07:53:57.501Z,1.92
2023-02-12T07:56:32.608Z,1.94
2023-02-12T07:59:03.148Z,1.96
2023-02-12T08:01:37.023Z,1.97
2023-02-12T08:04:08.593Z,1.99
2023-02-12T08:06:40.503Z,2.01
2023-02-12T08:09:10.850Z,2.02
2023-02-12T08:11:41.949Z,2.04
2023-02-12T08:14:15.476Z,2.05
2023-02-12T08:16:45.296Z,2.08
2023-02-12T08:19:20.212Z,2.11
2023-02-12T08:21:53.727Z,2.16
2023-02-12T08:24:22.608Z,2.18
2023-02-12T08:26:51.608Z,2.19
2023-02-12T08:29:22.909Z,2.20
2023-02-12T08:31:56.614Z,2.21
2023-02-12T08:34:27.639Z,2.22
2023-02-12T08:36:56.432Z,2.23
2023-02-12T08:39:26.634Z,2.24
2023-02-12T08:41:56.139Z,2.28
2023-02-12T08:44:27.084Z,2.35
2023-02-12T08:46:58.091Z,2.44
2023-02-12T08:49:29.179Z,2.53
2023-02-12T08:52:01.853Z,2.62
2023-02-12T08:54:31.652Z,2.69
2023-02-12T08:57:02.606Z,2.75
2023-02-12T08:59:31.304Z,2.79
2023-02-12T09:02:00.773Z,2.82
2023-02-12T09:04:30.038Z,2.85
2023-02-12T09:06:58.276Z,2.87
2023-02-12T09:09:26.367Z,2.89
2023-02-12T09:11:54.632Z,2.92
2023-02-12T09:14:25.570Z,2.94
2023-02-12T09:16:54.818Z,2.96
2023-02-12T09:19:23.445Z,2.97
2023-02-12T09:21:55.562Z,2.98
2023-02-12T09:24:28.126Z,2.99
2023-02-12T09:26:57.614Z,3.00
2023-02-12T09:29:25.630Z,3.02
2023-02-12T09:31:53.855Z,3.05
2023-02-12T09:34:22.062Z,3.06
2023-02-12T09:36:50.229Z,3.08
2023-02-12T09:39:18.322Z,3.09
2023-02-12T09:42:05.919Z,3.11
2023-02-12T09:45:02.782Z,3.13
2023-02-12T09:47:39.028Z,3.15
2023-02-12T09:50:19.274Z,3.16
2023-02-12T09:52:48.689Z,3.18
2023-02-12T09:55:19.098Z,3.21
2023-02-12T09:57:47.612Z,3.22
2023-02-12T10:00:22.037Z,3.24
2023-02-12T10:02:53.075Z,3.27
2023-02-12T10:05:35.217Z,3.29
2023-02-12T10:08:15.645Z,3.32
2023-02-12T10:10:53.448Z,3.34
2023-02-12T10:14:01.462Z,3.37
2023-02-12T10:16:47.807Z,3.40
2023-02-12T10:19:15.780Z,3.43
2023-02-12T10:22:13.647Z,3.46
2023-02-12T10:25:19.176Z,3.49
2023-02-12T10:27:51.360Z,3.51
2023-02-12T10:30:25.664Z,3.53
2023-02-12T10:33:04.555Z,3.56
2023-02-12T10:35:34.798Z,3.59
2023-02-12T10:38:14.957Z,3.62
2023-02-12T10:40:45.380Z,3.66
2023-02-12T10:43:14.204Z,3.69
2023-02-12T10:45:44.638Z,3.72
2023-02-12T10:48:20.757Z,3.75
2023-02-12T10:51:04.703Z,3.79
2023-02-12T10:53:36.152Z,3.82
2023-02-12T10:56:09.033Z,3.85
2023-02-12T10:58:39.360Z,3.88
2023-02-12T11:01:36.149Z,3.90
2023-02-12T11:04:26.480Z,3.92
2023-02-12T11:07:04.385Z,3.95
2023-02-12T11:09:40.868Z,3.96
2023-02-12T11:12:17.844Z,3.99
2023-02-12T11:14:58.416Z,4.01
2023-02-12T11:17:38.653Z,4.04
2023-02-12T11:20:16.234Z,4.07
2023-02-12T11:23:02.624Z,4.09
2023-02-12T11:25:36.117Z,4.12
2023-02-12T11:28:18.036Z,4.14
2023-02-12T11:30:57.099Z,4.15
2023-02-12T11:33:29.414Z,4.16
2023-02-12T11:36:06.771Z,4.18
2023-02-12T11:38:39.248Z,4.19
2023-02-12T11:41:24.763Z,4.20
2023-02-12T11:43:53.549Z,4.22
2023-02-12T11:46:25.736Z,4.23
2023-02-12T11:48:57.293Z,4.24
2023-02-12T11:51:29.462Z,4.24
2023-02-12T11:54:03.794Z,4.25
2023-02-12T11:56:48.320Z,4.26
2023-02-12T11:59:30.234Z,4.26
2023-02-12T12:02:04.542Z,4.27
2023-02-12T12:04:35.895Z,4.28
2023-02-12T12:07:16.743Z,4.29
2023-02-12T12:09:56.483Z,4.29
2023-02-12T12:12:37.762Z,4.30
2023-02-12T12:15:29.886Z,4.32
2023-02-12T12:18:43.798Z,4.33
2023-02-12T12:21:16.210Z,4.37
2023-02-12T12:23:59.818Z,4.38
2023-02-12T12:26:34.528Z,4.40
2023-02-12T12:29:16.952Z,4.41
2023-02-12T12:31:48.337Z,4.43
2023-02-12T12:34:23.890Z,4.45
2023-02-12T12:37:17.712Z,4.48
2023-02-12T12:39:55.198Z,4.50
2023-02-12T12:42:45.687Z,4.53
2023-02-12T12:45:32.971Z,4.55
2023-02-12T12:48:24.305Z,4.57
2023-02-12T12:51:10.402Z,4.59
2023-02-12T12:53:54.972Z,4.61
2023-02-12T12:56:54.845Z,4.64
2023-02-12T12:59:51.173Z,4.67
2023-02-12T13:02:28.456Z,4.69
2023-02-12T13:05:21.689Z,4.72
2023-02-12T13:08:01.786Z,4.75
2023-02-12T13:10:39.147Z,4.77
2023-02-12T13:13:31.990Z,4.80
2023-02-12T13:16:15.224Z,4.81
2023-02-12T13:18:59.217Z,4.83
2023-02-12T13:22:08.870Z,4.84
2023-02-12T13:24:58.335Z,4.85
2023-02-12T13:27:37.002Z,4.87
2023-02-12T13:30:18.134Z,4.89
2023-02-12T13:32:59.413Z,4.92
2023-02-12T13:35:30.349Z,4.95
2023-02-12T13:38:00.576Z,4.97
2023-02-12T13:40:31.727Z,4.99
2023-02-12T13:43:32.138Z,5.03
2023-02-12T13:46:25.396Z,5.05
2023-02-12T13:49:21.699Z,5.07
2023-02-12T13:52:17.408Z,5.09
2023-02-12T13:54:49.167Z,5.10
2023-02-12T13:57:19.902Z,5.10
2023-02-12T13:59:50.564Z,5.10
2023-02-12T14:02:33.817Z,5.12
2023-02-12T14:05:14.669Z,5.13
2023-02-12T14:07:46.750Z,5.14
2023-02-12T14:10:22.812Z,5.15
2023-02-12T14:12:59.534Z,5.14
2023-02-12T14:15:41.448Z,5.15
2023-02-12T14:18:32.011Z,5.16
2023-02-12T14:21:28.745Z,5.17
2023-02-12T14:24:35.625Z,5.17
2023-02-12T14:27:29.981Z,5.17
2023-02-12T14:30:12.076Z,5.18
2023-02-12T14:32:46.299Z,5.19
2023-02-12T14:35:45.885Z,5.19
2023-02-12T14:38:16.738Z,5.20
2023-02-12T14:40:52.671Z,5.21
2023-02-12T14:44:02.105Z,5.21
2023-02-12T14:46:43.744Z,5.22
2023-02-12T14:49:25.160Z,5.24
2023-02-12T14:52:14.833Z,5.25
2023-02-12T14:54:50.064Z,5.26
2023-02-12T14:57:32.288Z,5.27
2023-02-12T15:00:25.702Z,5.28
2023-02-12T15:03:13.965Z,5.27
2023-02-12T15:06:07.619Z,5.28
2023-02-12T15:08:45.417Z,5.29
2023-02-12T15:11:21.590Z,5.30
2023-02-12T15:14:02.873Z,5.30
2023-02-12T15:16:38.091Z,5.31
2023-02-12T15:19:16.718Z,5.32
2023-02-12T15:21:46.312Z,5.33
2023-02-12T15:24:23.479Z,5.33
2023-02-12T15:26:58.965Z,5.34
2023-02-12T15:29:45.454Z,5.33
2023-02-12T15:32:23.357Z,5.32
2023-02-12T15:34:52.550Z,5.31
2023-02-12T15:37:27.330Z,5.29
2023-02-12T15:40:00.154Z,5.29
2023-02-12T15:42:28.250Z,5.28
2023-02-12T15:45:17.928Z,5.27
2023-02-12T15:47:57.234Z,5.26
2023-02-12T15:50:26.341Z,5.25
2023-02-12T15:52:56.259Z,5.24
2023-02-12T15:55:28.501Z,5.22
2023-02-12T15:57:59.793Z,5.17
2023-02-12T16:00:33.713Z,5.15
2023-02-12T16:03:01.673Z,5.11
2023-02-12T16:05:32.597Z,5.07
2023-02-12T16:08:02.543Z,5.03
2023-02-12T16:10:31.223Z,4.98
2023-02-12T16:13:00.627Z,4.95
2023-02-12T16:15:32.486Z,4.91
2023-02-12T16:18:04.256Z,4.89
2023-02-12T16:20:32.553Z,4.85
2023-02-12T16:23:06.443Z,4.82
2023-02-12T16:25:35.425Z,4.78
2023-02-12T16:28:05.218Z,4.76
2023-02-12T16:30:38.840Z,4.70
2023-02-12T16:33:45.010Z,4.68
2023-02-12T16:36:30.557Z,4.63
2023-02-12T16:39:08.479Z,4.61
2023-02-12T16:41:55.698Z,4.58
2023-02-12T16:44:31.108Z,4.54
2023-02-12T16:47:01.654Z,4.51
2023-02-12T16:49:29.948Z,4.48
2023-02-12T16:52:27.168Z,4.46
2023-02-12T16:54:55.095Z,4.43
2023-02-12T16:57:23.132Z,4.41
2023-02-12T16:59:51.237Z,4.37
2023-02-12T17:02:19.895Z,4.34
2023-02-12T17:04:47.979Z,4.30
2023-02-12T17:07:20.344Z,4.27
2023-02-12T17:09:49.245Z,4.24
2023-02-12T17:12:17.762Z,4.20
2023-02-12T17:14:46.219Z,4.18
2023-02-12T17:17:14.607Z,4.16
2023-02-12T17:19:42.781Z,4.14
2023-02-12T17:22:26.402Z,4.11
2023-02-12T17:24:54.901Z,4.08
2023-02-12T17:27:23.186Z,4.05
2023-02-12T17:29:51.383Z,4.03
2023-02-12T17:32:19.595Z,4.01
2023-02-12T17:34:48.943Z,3.99
2023-02-12T17:37:18.430Z,3.98
2023-02-12T17:39:46.842Z,3.96
2023-02-12T17:42:15.021Z,3.96
2023-02-12T17:44:43.200Z,4.00
2023-02-12T17:47:11.377Z,4.05
2023-02-12T17:49:40.167Z,4.10
2023-02-12T17:52:08.664Z,4.11
2023-02-12T17:54:37.343Z,4.12
2023-02-12T17:57:05.427Z,4.10
2023-02-12T17:59:33.490Z,4.08
2023-02-12T18:02:01.979Z,4.06
2023-02-12T18:04:35.871Z,4.04
2023-02-12T18:07:05.298Z,4.01
2023-02-12T18:09:33.375Z,3.98
2023-02-12T18:12:01.563Z,3.96
2023-02-12T18:14:30.141Z,3.94
2023-02-12T18:16:58.959Z,3.91
2023-02-12T18:19:29.264Z,3.89
2023-02-12T18:21:57.433Z,3.85
2023-02-12T18:24:25.518Z,3.83
2023-02-12T18:26:53.595Z,3.81
2023-02-12T18:29:21.663Z,3.79
2023-02-12T18:31:49.765Z,3.76
2023-02-12T18:34:18.120Z,3.73
2023-02-12T18:36:46.374Z,3.70
2023-02-12T18:39:14.489Z,3.68
2023-02-12T18:41:43.477Z,3.66
2023-02-12T18:44:11.565Z,3.65
2023-02-12T18:46:40.348Z,3.62
2023-02-12T18:49:10.365Z,3.59
2023-02-12T18:51:41.216Z,3.57
2023-02-12T18:54:12.844Z,3.56
2023-02-12T18:56:43.854Z,3.53
2023-02-12T18:59:14.128Z,3.54
2023-02-12T19:01:43.485Z,3.55
2023-02-12T19:04:16.767Z,3.54
2023-02-12T19:06:48.811Z,3.55
2023-02-12T19:09:20.511Z,3.56
2023-02-12T19:11:50.186Z,3.55
2023-02-12T19:14:21.115Z,3.54
2023-02-12T19:16:50.422Z,3.52
2023-02-12T19:19:21.196Z,3.51
2023-02-12T19:21:49.946Z,3.49
2023-02-12T19:24:18.640Z,3.46
2023-02-12T19:26:50.602Z,3.43
2023-02-12T19:29:19.093Z,3.41
2023-02-12T19:31:47.735Z,3.39
2023-02-12T19:34:19.851Z,3.36
2023-02-12T19:36:49.957Z,3.32
2023-02-12T19:39:21.729Z,3.29
2023-02-12T19:41:50.528Z,3.26
2023-02-12T19:44:24.595Z,3.21
2023-02-12T19:46:53.536Z,3.19
2023-02-12T19:49:24.783Z,3.16
2023-02-12T19:51:53.577Z,3.14
2023-02-12T19:54:23.328Z,3.11
2023-02-12T19:56:53.002Z,3.06
2023-02-12T19:59:23.026Z,3.02
2023-02-12T20:01:51.732Z,2.99
2023-02-12T20:04:23.821Z,2.96
2023-02-12T20:06:52.646Z,2.93
2023-02-12T20:09:22.827Z,2.92
2023-02-12T20:11:51.808Z,2.90
2023-02-12T20:14:22.740Z,2.90
2023-02-12T20:16:55.225Z,2.88
2023-02-12T20:19:26.495Z,2.86
2023-02-12T20:21:56.849Z,2.84
2023-02-12T20:24:31.027Z,2.81
2023-02-12T20:27:00.836Z,2.79
2023-02-12T20:29:33.000Z,2.76
2023-02-12T20:32:01.324Z,2.72
2023-02-12T20:34:30.417Z,2.69
2023-02-12T20:36:59.677Z,2.66
2023-02-12T20:39:27.691Z,2.64
2023-02-12T20:41:56.023Z,2.62
2023-02-12T20:44:24.418Z,2.60
2023-02-12T20:46:56.496Z,2.57
2023-02-12T20:49:26.210Z,2.54
2023-02-12T20:51:54.901Z,2.53
2023-02-12T20:54:23.070Z,2.52
2023-02-12T20:56:51.354Z,2.51
2023-02-12T20:59:20.505Z,2.49
2023-02-12T21:01:49.288Z,2.48
2023-02-12T21:04:19.717Z,2.46
2023-02-12T21:06:48.714Z,2.45
2023-02-12T21:09:20.736Z,2.44
2023-02-12T21:11:49.337Z,2.42
2023-02-12T21:14:22.215Z,2.41
2023-02-12T21:16:53.854Z,2.40
2023-02-12T21:19:22.669Z,2.39
2023-02-12T21:21:51.055Z,2.38
2023-02-12T21:24:24.330Z,2.36
2023-02-12T21:26:54.146Z,2.35
2023-02-12T21:29:23.866Z,2.33
2023-02-12T21:31:52.267Z,2.32
2023-02-12T21:34:22.743Z,2.30
2023-02-12T21:36:54.254Z,2.27
2023-02-12T21:39:27.539Z,2.24
2023-02-12T21:42:00.229Z,2.22
2023-02-12T21:44:29.845Z,2.20
2023-02-12T21:46:59.125Z,2.18
2023-02-12T21:49:28.476Z,2.17
2023-02-12T21:52:02.262Z,2.15
2023-02-12T21:54:30.973Z,2.14
2023-02-12T21:57:00.225Z,2.13
2023-02-12T21:59:31.499Z,2.11
2023-02-12T22:02:01.822Z,2.11
2023-02-12T22:04:29.954Z,2.10
2023-02-12T22:06:59.807Z,2.08
2023-02-12T22:09:27.964Z,2.07
2023-02-12T22:11:56.041Z,2.07
2023-02-12T22:14:24.013Z,2.05
2023-02-12T22:16:52.302Z,2.04
2023-02-12T22:19:20.331Z,2.04
2023-02-12T22:21:51.851Z,2.04
2023-02-12T22:24:20.620Z,2.04
2023-02-12T22:26:48.996Z,2.04
2023-02-12T22:29:17.489Z,2.03
2023-02-12T22:31:47.233Z,2.03
2023-02-12T22:34:18.918Z,2.02
2023-02-12T22:36:47.858Z,2.03
2023-02-12T22:39:17.746Z,2.01
2023-02-12T22:41:46.441Z,1.99
2023-02-12T22:44:16.442Z,1.97
2023-02-12T22:46:45.142Z,1.95
2023-02-12T22:49:13.977Z,1.93
2023-02-12T22:51:42.246Z,1.91
2023-02-12T22:54:15.918Z,1.89
2023-02-12T22:56:45.472Z,1.88
2023-02-12T22:59:13.734Z,1.86
2023-02-12T23:01:42.637Z,1.84
2023-02-12T23:04:18.826Z,1.83
2023-02-12T23:06:47.391Z,1.82
2023-02-12T23:09:18.946Z,1.81
2023-02-12T23:11:48.445Z,1.80
2023-02-12T23:14:17.060Z,1.76
2023-02-12T23:16:46.224Z,1.75
2023-02-12T23:19:15.131Z,1.73
2023-02-12T23:21:43.932Z,1.72
2023-02-12T23:24:14.234Z,1.70
2023-02-12T23:26:42.549Z,1.67
2023-02-12T23:29:11.053Z,1.66
2023-02-12T23:31:39.350Z,1.64
2023-02-12T23:34:07.604Z,1.64
2023-02-12T23:36:35.982Z,1.62
2023-02-12T23:39:06.213Z,1.61
2023-02-12T23:41:34.763Z,1.60
2023-02-12T23:44:03.094Z,1.58
2023-02-12T23:46:32.085Z,1.57
2023-02-12T23:49:00.055Z,1.56
2023-02-12T23:51:28.132Z,1.54
2023-02-12T23:53:56.520Z,1.53
2023-02-12T23:56:25.000Z,1.53
2023-02-12T23:58:55.762Z,1.52
